BAW914 EHAM-EGLL
Flight info
| Callsign | BAW914 |
|---|---|
| Flight time | N/A |
| Altitude | 24000 |
| Route | IDRID L980 LOGAN |
| Aircraft | A320/M-SDE3FGHIRWY/LB1 |
Departure
| Time | 2026-05-07 13:19 |
|---|---|
| Airport | Amsterdam Airport Schiphol (EHAM) |
Arrival
| Time | N/A |
|---|---|
| Airport | London Heathrow Airport (EGLL) |
| Time | Latitude | Longitude | Altitude | Speed | Heading |
|---|---|---|---|---|---|
| 2026-05-07 12:58 | 52.30718 | 4.77026 | -1 ft | 0 kts | 3° |
| 2026-05-07 13:07 | 52.30717 | 4.77026 | -1 ft | 2 kts | 3° |
| 2026-05-07 13:07 | 52.30692 | 4.77022 | -1 ft | 4 kts | 11° |
| 2026-05-07 13:07 | 52.30668 | 4.77010 | -1 ft | 4 kts | 33° |
| 2026-05-07 13:08 | 52.30654 | 4.76984 | -1 ft | 3 kts | 89° |
| 2026-05-07 13:08 | 52.30654 | 4.76979 | -1 ft | 1 kts | 93° |
| 2026-05-07 13:10 | 52.30654 | 4.76980 | -1 ft | 1 kts | 93° |
| 2026-05-07 13:10 | 52.30653 | 4.77018 | -1 ft | 6 kts | 93° |
| 2026-05-07 13:11 | 52.30650 | 4.77100 | -1 ft | 8 kts | 93° |
| 2026-05-07 13:11 | 52.30646 | 4.77208 | -1 ft | 11 kts | 93° |
| 2026-05-07 13:11 | 52.30642 | 4.77340 | -1 ft | 13 kts | 93° |
| 2026-05-07 13:11 | 52.30638 | 4.77500 | -1 ft | 15 kts | 86° |
| 2026-05-07 13:12 | 52.30709 | 4.77591 | -1 ft | 15 kts | 6° |
| 2026-05-07 13:12 | 52.30820 | 4.77603 | -1 ft | 17 kts | 3° |
| 2026-05-07 13:12 | 52.30947 | 4.77615 | -1 ft | 19 kts | 3° |
| 2026-05-07 13:12 | 52.31088 | 4.77626 | -1 ft | 21 kts | 3° |
| 2026-05-07 13:13 | 52.31242 | 4.77639 | -1 ft | 23 kts | 3° |
| 2026-05-07 13:13 | 52.31388 | 4.77650 | -1 ft | 18 kts | 1° |
| 2026-05-07 13:13 | 52.31503 | 4.77568 | -1 ft | 18 kts | 316° |
| 2026-05-07 13:13 | 52.31567 | 4.77454 | -1 ft | 14 kts | 298° |
| 2026-05-07 13:14 | 52.31574 | 4.77281 | -1 ft | 17 kts | 266° |
| 2026-05-07 13:14 | 52.31567 | 4.77077 | -1 ft | 19 kts | 267° |
| 2026-05-07 13:14 | 52.31560 | 4.76853 | -1 ft | 18 kts | 268° |
| 2026-05-07 13:14 | 52.31553 | 4.76674 | -1 ft | 13 kts | 266° |
| 2026-05-07 13:15 | 52.31547 | 4.76514 | -1 ft | 15 kts | 267° |
| 2026-05-07 13:15 | 52.31542 | 4.76330 | -1 ft | 17 kts | 266° |
| 2026-05-07 13:15 | 52.31535 | 4.76119 | -1 ft | 20 kts | 267° |
| 2026-05-07 13:15 | 52.31526 | 4.75881 | -1 ft | 22 kts | 266° |
| 2026-05-07 13:16 | 52.31517 | 4.75623 | -1 ft | 23 kts | 267° |
| 2026-05-07 13:16 | 52.31511 | 4.75429 | -1 ft | 17 kts | 266° |
| 2026-05-07 13:16 | 52.31504 | 4.75233 | -1 ft | 18 kts | 266° |
| 2026-05-07 13:16 | 52.31496 | 4.75013 | -1 ft | 20 kts | 266° |
| 2026-05-07 13:17 | 52.31489 | 4.74802 | -1 ft | 10 kts | 267° |
| 2026-05-07 13:17 | 52.31500 | 4.74692 | -1 ft | 11 kts | 319° |
| 2026-05-07 13:17 | 52.31581 | 4.74663 | -1 ft | 13 kts | 1° |
| 2026-05-07 13:17 | 52.31664 | 4.74723 | -1 ft | 15 kts | 66° |
| 2026-05-07 13:18 | 52.31672 | 4.74843 | -2 ft | 0 kts | 86° |
| 2026-05-07 13:18 | 52.31673 | 4.74879 | -2 ft | 14 kts | 88° |
| 2026-05-07 13:18 | 52.31691 | 4.75402 | -3 ft | 80 kts | 86° |
| 2026-05-07 13:18 | 52.31733 | 4.76623 | -1 ft | 133 kts | 86° |
| 2026-05-07 13:19 | 52.31792 | 4.78372 | 32 ft | 171 kts | 86° |
| 2026-05-07 13:19 | 52.31843 | 4.80322 | 629 ft | 170 kts | 81° |
| 2026-05-07 13:19 | 52.32202 | 4.82142 | 1312 ft | 169 kts | 50° |
| 2026-05-07 13:19 | 52.33172 | 4.83088 | 1861 ft | 170 kts | 3° |
| 2026-05-07 13:20 | 52.34373 | 4.82550 | 2153 ft | 194 kts | 330° |
| 2026-05-07 13:20 | 52.35563 | 4.81286 | 2529 ft | 214 kts | 327° |
| 2026-05-07 13:20 | 52.36889 | 4.80039 | 3186 ft | 223 kts | 335° |
| 2026-05-07 13:20 | 52.38315 | 4.78996 | 3995 ft | 227 kts | 333° |
| 2026-05-07 13:21 | 52.39629 | 4.77441 | 4549 ft | 245 kts | 318° |
| 2026-05-07 13:21 | 52.40925 | 4.75453 | 5110 ft | 262 kts | 316° |
| 2026-05-07 13:21 | 52.42239 | 4.73333 | 5881 ft | 267 kts | 315° |
| 2026-05-07 13:21 | 52.43553 | 4.71164 | 6691 ft | 270 kts | 312° |
| 2026-05-07 13:22 | 52.44556 | 4.68548 | 7451 ft | 275 kts | 288° |
| 2026-05-07 13:22 | 52.44802 | 4.65453 | 8245 ft | 277 kts | 263° |
| 2026-05-07 13:22 | 52.44239 | 4.62433 | 9062 ft | 280 kts | 245° |
| 2026-05-07 13:22 | 52.43441 | 4.59510 | 9904 ft | 283 kts | 245° |
| 2026-05-07 13:23 | 52.42624 | 4.56523 | 10440 ft | 296 kts | 245° |
| 2026-05-07 13:23 | 52.41751 | 4.53331 | 10647 ft | 319 kts | 245° |
| 2026-05-07 13:23 | 52.40814 | 4.49901 | 10801 ft | 341 kts | 245° |
| 2026-05-07 13:23 | 52.39830 | 4.46308 | 11280 ft | 350 kts | 245° |
| 2026-05-07 13:24 | 52.39167 | 4.43891 | 11701 ft | 353 kts | 245° |
| 2026-05-07 13:24 | 52.38157 | 4.40207 | 12359 ft | 356 kts | 246° |
| 2026-05-07 13:24 | 52.36806 | 4.35275 | 13234 ft | 361 kts | 246° |
| 2026-05-07 13:24 | 52.35774 | 4.31506 | 13873 ft | 365 kts | 246° |
| 2026-05-07 13:25 | 52.35070 | 4.28933 | 14281 ft | 368 kts | 246° |
| 2026-05-07 13:25 | 52.33677 | 4.23855 | 15062 ft | 372 kts | 246° |
| 2026-05-07 13:25 | 52.32999 | 4.21395 | 15450 ft | 373 kts | 246° |
| 2026-05-07 13:25 | 52.31924 | 4.17525 | 16034 ft | 376 kts | 244° |
| 2026-05-07 13:26 | 52.30575 | 4.13852 | 16619 ft | 379 kts | 234° |
| 2026-05-07 13:26 | 52.28956 | 4.10433 | 17217 ft | 382 kts | 232° |
| 2026-05-07 13:26 | 52.27318 | 4.07000 | 17826 ft | 385 kts | 232° |
| 2026-05-07 13:26 | 52.25667 | 4.03543 | 18437 ft | 388 kts | 232° |
| 2026-05-07 13:27 | 52.23999 | 4.00058 | 18991 ft | 391 kts | 232° |
| 2026-05-07 13:27 | 52.22322 | 3.96555 | 19548 ft | 393 kts | 232° |
| 2026-05-07 13:27 | 52.20630 | 3.93029 | 20124 ft | 396 kts | 232° |
| 2026-05-07 13:27 | 52.18926 | 3.89491 | 20678 ft | 398 kts | 232° |
| 2026-05-07 13:28 | 52.17210 | 3.85931 | 21192 ft | 401 kts | 232° |
| 2026-05-07 13:28 | 52.15482 | 3.82345 | 21687 ft | 403 kts | 232° |
| 2026-05-07 13:28 | 52.13748 | 3.78742 | 22160 ft | 406 kts | 232° |
| 2026-05-07 13:28 | 52.11998 | 3.75111 | 22615 ft | 409 kts | 232° |
| 2026-05-07 13:29 | 52.10237 | 3.71467 | 23064 ft | 411 kts | 232° |
| 2026-05-07 13:29 | 52.08460 | 3.67796 | 23506 ft | 414 kts | 232° |
| 2026-05-07 13:29 | 52.06677 | 3.64114 | 23898 ft | 416 kts | 232° |
| 2026-05-07 13:29 | 52.04876 | 3.60408 | 24064 ft | 418 kts | 232° |
| 2026-05-07 13:30 | 52.03051 | 3.56667 | 24103 ft | 428 kts | 232° |
| 2026-05-07 13:30 | 52.01213 | 3.52901 | 24102 ft | 433 kts | 232° |
| 2026-05-07 13:30 | 51.99315 | 3.49003 | 24102 ft | 435 kts | 232° |
| 2026-05-07 13:30 | 51.97500 | 3.45154 | 24103 ft | 435 kts | 233° |
| 2026-05-07 13:31 | 51.95706 | 3.41206 | 24104 ft | 435 kts | 234° |
| 2026-05-07 13:31 | 51.93937 | 3.37226 | 24101 ft | 435 kts | 234° |
| 2026-05-07 13:31 | 51.92173 | 3.33236 | 24098 ft | 435 kts | 234° |
| 2026-05-07 13:31 | 51.90406 | 3.29262 | 24101 ft | 435 kts | 234° |
| 2026-05-07 13:32 | 51.88624 | 3.25297 | 24100 ft | 435 kts | 234° |
| 2026-05-07 13:32 | 51.86910 | 3.21271 | 24094 ft | 435 kts | 239° |
| 2026-05-07 13:32 | 51.85576 | 3.16887 | 24090 ft | 434 kts | 249° |
| 2026-05-07 13:32 | 51.84701 | 3.12216 | 24090 ft | 434 kts | 258° |
| 2026-05-07 13:33 | 51.84283 | 3.07379 | 24091 ft | 434 kts | 264° |
| 2026-05-07 13:33 | 51.83978 | 3.02522 | 24086 ft | 435 kts | 264° |
| 2026-05-07 13:33 | 51.83666 | 2.97662 | 24085 ft | 435 kts | 263° |
| 2026-05-07 13:33 | 51.83347 | 2.92805 | 24078 ft | 435 kts | 263° |
| 2026-05-07 13:34 | 51.83023 | 2.87945 | 24078 ft | 434 kts | 263° |
| 2026-05-07 13:34 | 51.82372 | 2.78239 | 24080 ft | 434 kts | 263° |
| 2026-05-07 13:34 | 51.82040 | 2.73389 | 24079 ft | 434 kts | 263° |
| 2026-05-07 13:35 | 51.81708 | 2.68535 | 24080 ft | 434 kts | 263° |
| 2026-05-07 13:35 | 51.81377 | 2.63685 | 24075 ft | 434 kts | 263° |
| 2026-05-07 13:35 | 51.81045 | 2.58837 | 24081 ft | 434 kts | 263° |
| 2026-05-07 13:35 | 51.80713 | 2.53985 | 24077 ft | 434 kts | 263° |
| 2026-05-07 13:36 | 51.80377 | 2.49138 | 24075 ft | 434 kts | 263° |
| 2026-05-07 13:36 | 51.80035 | 2.44295 | 24076 ft | 434 kts | 263° |
| 2026-05-07 13:36 | 51.79690 | 2.39445 | 24076 ft | 434 kts | 263° |
| 2026-05-07 13:36 | 51.79344 | 2.34596 | 24074 ft | 434 kts | 263° |
| 2026-05-07 13:37 | 51.78997 | 2.29749 | 24078 ft | 435 kts | 263° |
| 2026-05-07 13:37 | 51.78649 | 2.24906 | 24076 ft | 435 kts | 263° |
| 2026-05-07 13:37 | 51.78302 | 2.20051 | 24075 ft | 435 kts | 263° |
| 2026-05-07 13:37 | 51.77991 | 2.15202 | 24075 ft | 435 kts | 264° |
| 2026-05-07 13:38 | 51.77708 | 2.10344 | 24074 ft | 435 kts | 264° |
| 2026-05-07 13:38 | 51.77441 | 2.05538 | 24077 ft | 435 kts | 264° |
| 2026-05-07 13:38 | 51.77170 | 2.00671 | 24074 ft | 435 kts | 264° |
| 2026-05-07 13:38 | 51.76893 | 1.95810 | 24077 ft | 435 kts | 264° |
| 2026-05-07 13:39 | 51.76609 | 1.90956 | 24080 ft | 435 kts | 264° |
| 2026-05-07 13:39 | 51.76318 | 1.86096 | 24078 ft | 435 kts | 264° |
| 2026-05-07 13:39 | 51.76019 | 1.81245 | 24080 ft | 435 kts | 263° |
| 2026-05-07 13:39 | 51.75716 | 1.76387 | 24075 ft | 435 kts | 263° |
| 2026-05-07 13:40 | 51.75411 | 1.71526 | 24080 ft | 440 kts | 263° |
| 2026-05-07 13:40 | 51.75101 | 1.66591 | 24094 ft | 439 kts | 263° |
| 2026-05-07 13:40 | 51.74793 | 1.61714 | 24088 ft | 436 kts | 263° |
| 2026-05-07 13:40 | 51.74567 | 1.58144 | 24094 ft | 436 kts | 263° |
| 2026-05-07 13:41 | 51.74257 | 1.53286 | 24093 ft | 435 kts | 263° |
| 2026-05-07 13:41 | 51.73953 | 1.48524 | 24087 ft | 421 kts | 263° |
| 2026-05-07 13:41 | 51.73653 | 1.43842 | 23838 ft | 418 kts | 263° |
| 2026-05-07 13:41 | 51.73349 | 1.39175 | 22953 ft | 419 kts | 263° |
| 2026-05-07 13:42 | 51.73045 | 1.34509 | 22181 ft | 416 kts | 263° |
| 2026-05-07 13:42 | 51.72745 | 1.29890 | 21464 ft | 412 kts | 263° |
| 2026-05-07 13:42 | 51.72447 | 1.25346 | 20796 ft | 409 kts | 263° |